createdAt,value
2017-10-28T00:00:05.743Z,20.55
2017-10-28T00:00:33.836Z,20.5
2017-10-28T00:01:01.864Z,20.52
2017-10-28T00:01:29.799Z,20.53
2017-10-28T00:01:57.726Z,20.55
2017-10-28T00:02:25.842Z,20.42
2017-10-28T00:02:53.869Z,20.4
2017-10-28T00:03:21.869Z,20.42
2017-10-28T00:03:49.802Z,20.44
2017-10-28T00:04:17.817Z,20.46
2017-10-28T00:04:45.736Z,20.49
2017-10-28T00:05:13.864Z,20.37
2017-10-28T00:05:42.022Z,20.37
2017-10-28T00:06:10.156Z,20.44
2017-10-28T00:06:38.162Z,20.39
2017-10-28T00:07:05.956Z,20.49
2017-10-28T00:07:34.080Z,20.42
2017-10-28T00:08:02.206Z,20.39
2017-10-28T00:08:30.217Z,20.33
2017-10-28T00:08:58.140Z,20.29
2017-10-28T00:09:26.211Z,20.29
2017-10-28T00:09:54.345Z,20.27
2017-10-28T00:10:22.459Z,20.33
2017-10-28T00:10:50.600Z,20.36
2017-10-28T00:11:18.631Z,20.32
2017-10-28T00:11:46.763Z,20.29
2017-10-28T00:12:14.733Z,20.27
2017-10-28T00:12:42.850Z,20.32
2017-10-28T00:13:10.763Z,20.22
2017-10-28T00:13:38.691Z,20.22
2017-10-28T00:14:06.537Z,20.21
2017-10-28T00:14:34.558Z,20.21
2017-10-28T00:15:02.427Z,20.34
2017-10-28T00:15:30.544Z,20.24
2017-10-28T00:15:58.467Z,20.19
2017-10-28T00:16:26.588Z,20.22
2017-10-28T00:16:54.724Z,20.21
2017-10-28T00:17:22.657Z,20.26
2017-10-28T00:17:50.794Z,20.24
2017-10-28T00:18:18.613Z,20.19
2017-10-28T00:18:46.576Z,20.26
2017-10-28T00:19:14.590Z,20.24
2017-10-28T00:19:42.623Z,20.18
2017-10-28T00:20:10.651Z,20.22
2017-10-28T00:20:38.767Z,20.21
2017-10-28T00:21:06.893Z,20.12
2017-10-28T00:21:34.906Z,20.14
2017-10-28T00:22:02.996Z,20.11
2017-10-28T00:22:31.026Z,20.15
2017-10-28T00:22:59.160Z,20.15
2017-10-28T00:23:27.087Z,20.04
2017-10-28T00:23:55.105Z,20.11
2017-10-28T00:24:23.022Z,20.11
2017-10-28T00:24:50.947Z,20.04
2017-10-28T00:25:18.704Z,20.02
2017-10-28T00:25:46.449Z,20
2017-10-28T00:26:14.288Z,20.02
2017-10-28T00:26:42.294Z,19.97
2017-10-28T00:27:10.119Z,19.96
2017-10-28T00:27:38.261Z,19.97
2017-10-28T00:28:06.396Z,19.99
2017-10-28T00:28:34.298Z,19.97
2017-10-28T00:29:02.328Z,19.81
2017-10-28T00:29:30.355Z,19.93
2017-10-28T00:29:58.280Z,19.9
2017-10-28T00:30:26.286Z,19.87
2017-10-28T00:30:54.396Z,19.84
2017-10-28T00:31:22.408Z,19.84
2017-10-28T00:31:50.429Z,19.85
2017-10-28T00:32:18.349Z,19.84
2017-10-28T00:32:46.470Z,19.82
2017-10-28T00:33:14.581Z,19.64
2017-10-28T00:33:42.582Z,19.63
2017-10-28T00:34:10.613Z,19.72
2017-10-28T00:34:38.721Z,19.78
2017-10-28T00:35:06.744Z,19.77
2017-10-28T00:35:35.524Z,19.81
2017-10-28T00:36:03.543Z,19.81
2017-10-28T00:36:31.568Z,19.77
2017-10-28T00:36:59.381Z,19.71
2017-10-28T00:37:27.404Z,19.79
2017-10-28T00:37:55.414Z,19.82
2017-10-28T00:38:23.425Z,19.82
2017-10-28T00:38:51.309Z,19.79
2017-10-28T00:39:19.330Z,19.85
2017-10-28T00:39:47.345Z,19.82
2017-10-28T00:40:15.378Z,19.84
2017-10-28T00:40:43.404Z,19.82
2017-10-28T00:41:11.525Z,19.77
2017-10-28T00:41:39.425Z,19.71
2017-10-28T00:42:07.539Z,19.79
2017-10-28T00:42:35.527Z,19.67
2017-10-28T00:43:03.553Z,19.77
2017-10-28T00:43:31.722Z,19.72
2017-10-28T00:43:59.861Z,19.62
2017-10-28T00:44:27.904Z,19.64
2017-10-28T00:44:55.804Z,19.62
2017-10-28T00:45:23.725Z,19.66
2017-10-28T00:45:51.861Z,19.62
2017-10-28T00:46:20.131Z,19.59
2017-10-28T00:46:48.156Z,19.59
2017-10-28T00:47:16.169Z,19.48
2017-10-28T00:47:44.200Z,19.59
2017-10-28T00:48:12.224Z,19.57
2017-10-28T00:48:40.347Z,19.48
2017-10-28T00:49:08.377Z,19.49
2017-10-28T00:49:36.428Z,19.49
2017-10-28T00:50:04.442Z,19.44
2017-10-28T00:50:32.581Z,19.48
2017-10-28T00:51:00.707Z,19.42
2017-10-28T00:51:28.818Z,19.42
2017-10-28T00:51:56.831Z,19.44
2017-10-28T00:52:24.858Z,19.47
2017-10-28T00:52:52.866Z,19.39
2017-10-28T00:53:21.065Z,19.44
2017-10-28T00:53:49.093Z,19.44
2017-10-28T00:54:17.102Z,19.47
2017-10-28T00:54:45.983Z,19.42
2017-10-28T00:55:13.997Z,19.47
2017-10-28T00:55:42.124Z,19.42
2017-10-28T00:56:10.051Z,19.44
2017-10-28T00:56:38.033Z,19.48
2017-10-28T00:57:06.033Z,19.35
2017-10-28T00:57:34.067Z,19.32
2017-10-28T00:58:01.999Z,19.35
2017-10-28T00:58:29.941Z,19.38
2017-10-28T00:58:57.857Z,19.37
2017-10-28T00:59:25.905Z,19.34
2017-10-28T00:59:54.019Z,19.41
2017-10-28T01:00:21.947Z,19.39
2017-10-28T01:00:49.958Z,19.35
2017-10-28T01:01:17.869Z,19.34
2017-10-28T01:01:45.975Z,19.35
2017-10-28T01:02:13.903Z,19.34
2017-10-28T01:02:41.914Z,19.26
2017-10-28T01:03:10.033Z,19.34
2017-10-28T01:03:38.054Z,19.26
2017-10-28T01:04:05.962Z,19.34
2017-10-28T01:04:33.974Z,19.32
2017-10-28T01:05:01.885Z,19.29
2017-10-28T01:05:29.889Z,19.38
2017-10-28T01:05:58.021Z,19.35
2017-10-28T01:06:25.928Z,19.34
2017-10-28T01:06:53.947Z,19.3
2017-10-28T01:07:22.039Z,19.3
2017-10-28T01:07:50.148Z,19.37
2017-10-28T01:08:18.269Z,19.37
2017-10-28T01:08:46.382Z,19.34
2017-10-28T01:09:14.514Z,19.38
2017-10-28T01:09:42.526Z,19.37
2017-10-28T01:10:10.629Z,19.47
2017-10-28T01:10:38.634Z,19.47
2017-10-28T01:11:06.512Z,19.41
2017-10-28T01:11:34.630Z,19.47
2017-10-28T01:12:02.640Z,19.53
2017-10-28T01:12:30.645Z,19.55
2017-10-28T01:12:58.560Z,19.55
2017-10-28T01:13:26.472Z,19.55
2017-10-28T01:13:54.596Z,19.57
2017-10-28T01:14:22.612Z,19.52
2017-10-28T01:14:50.722Z,19.7
2017-10-28T01:15:18.749Z,19.62
2017-10-28T01:15:46.753Z,19.57
2017-10-28T01:16:14.787Z,19.53
2017-10-28T01:16:42.722Z,19.57
2017-10-28T01:17:10.830Z,19.56
2017-10-28T01:17:38.954Z,19.49
2017-10-28T01:18:06.952Z,19.57
2017-10-28T01:18:35.052Z,19.55
2017-10-28T01:19:03.086Z,19.56
2017-10-28T01:19:31.005Z,19.62
2017-10-28T01:19:58.880Z,19.63
2017-10-28T01:20:26.812Z,19.57
2017-10-28T01:20:54.929Z,19.56
2017-10-28T01:21:22.755Z,19.55
2017-10-28T01:21:50.556Z,19.6
2017-10-28T01:22:18.578Z,19.52
2017-10-28T01:22:46.595Z,19.44
2017-10-28T01:23:14.589Z,19.53
2017-10-28T01:23:42.701Z,19.49
2017-10-28T01:24:10.620Z,19.45
2017-10-28T01:24:38.630Z,19.45
2017-10-28T01:25:06.564Z,19.45
2017-10-28T01:25:34.636Z,19.47
2017-10-28T01:26:02.767Z,19.49
2017-10-28T01:26:30.703Z,19.45
2017-10-28T01:26:58.824Z,19.42
2017-10-28T01:27:26.824Z,19.48
2017-10-28T01:27:54.538Z,19.45
2017-10-28T01:28:22.459Z,19.48
2017-10-28T01:28:50.496Z,19.47
2017-10-28T01:29:18.507Z,19.44
2017-10-28T01:29:46.598Z,19.45
2017-10-28T01:30:14.638Z,19.41
2017-10-28T01:30:42.762Z,19.45
2017-10-28T01:31:10.870Z,19.56
2017-10-28T01:31:38.804Z,19.53
2017-10-28T01:32:06.829Z,19.53
2017-10-28T01:32:34.844Z,19.55
2017-10-28T01:33:02.780Z,19.53
2017-10-28T01:33:30.906Z,19.56
2017-10-28T01:33:59.048Z,19.56
2017-10-28T01:34:27.187Z,19.59
2017-10-28T01:34:55.218Z,19.6
2017-10-28T01:35:23.324Z,19.6
2017-10-28T01:35:51.139Z,19.55
2017-10-28T01:36:19.155Z,19.62
2017-10-28T01:36:47.173Z,19.63
2017-10-28T01:37:15.273Z,19.67
2017-10-28T01:37:43.176Z,19.64
2017-10-28T01:38:11.192Z,19.71
2017-10-28T01:38:39.304Z,19.62
2017-10-28T01:39:07.420Z,19.66
2017-10-28T01:39:35.344Z,19.64
2017-10-28T01:40:03.276Z,19.56
2017-10-28T01:40:31.388Z,19.63
2017-10-28T01:40:59.396Z,19.6
2017-10-28T01:41:27.521Z,19.55
2017-10-28T01:41:55.617Z,19.6
2017-10-28T01:42:23.630Z,19.6
2017-10-28T01:42:51.671Z,19.55
2017-10-28T01:43:19.603Z,19.53
2017-10-28T01:43:47.688Z,19.44
2017-10-28T01:44:15.714Z,19.47
2017-10-28T01:44:43.632Z,19.44
2017-10-28T01:45:11.777Z,19.45
2017-10-28T01:45:39.892Z,19.48
2017-10-28T01:46:07.996Z,19.47
2017-10-28T01:46:36.021Z,19.38
2017-10-28T01:47:04.044Z,19.44
2017-10-28T01:47:32.064Z,19.38
2017-10-28T01:48:00.196Z,19.35
2017-10-28T01:48:27.987Z,19.42
2017-10-28T01:48:55.823Z,19.37
2017-10-28T01:49:23.941Z,19.32
2017-10-28T01:49:51.852Z,19.27
2017-10-28T01:50:19.901Z,19.19
2017-10-28T01:50:48.046Z,19.22
2017-10-28T01:51:16.060Z,19.27
2017-10-28T01:51:44.072Z,19.22
2017-10-28T01:52:12.117Z,19.19
2017-10-28T01:52:40.148Z,19.17
2017-10-28T01:53:08.258Z,19.26
2017-10-28T01:53:36.389Z,19.19
2017-10-28T01:54:04.316Z,19.2
2017-10-28T01:54:32.303Z,19.29
2017-10-28T01:55:00.443Z,19.23
2017-10-28T01:55:28.552Z,19.27
2017-10-28T01:55:56.676Z,19.29
2017-10-28T01:56:24.781Z,19.32
2017-10-28T01:56:52.614Z,19.32
2017-10-28T01:57:20.637Z,19.29
2017-10-28T01:57:48.750Z,19.27
2017-10-28T01:58:16.744Z,19.35
2017-10-28T01:58:44.842Z,19.32
2017-10-28T01:59:12.742Z,19.41
2017-10-28T01:59:40.661Z,19.35
2017-10-28T02:00:08.673Z,19.41
2017-10-28T02:00:36.594Z,19.41
2017-10-28T02:01:04.624Z,19.44
2017-10-28T02:01:32.648Z,19.48
2017-10-28T02:02:00.767Z,19.48
2017-10-28T02:02:28.878Z,19.48
2017-10-28T02:02:56.998Z,19.47
2017-10-28T02:03:25.094Z,19.41
2017-10-28T02:03:53.079Z,19.42
2017-10-28T02:04:21.175Z,19.44
2017-10-28T02:04:49.285Z,19.47
2017-10-28T02:05:17.285Z,19.45
2017-10-28T02:05:45.298Z,19.45
2017-10-28T02:06:13.436Z,19.45
2017-10-28T02:06:41.371Z,19.48
2017-10-28T02:07:09.276Z,19.45
2017-10-28T02:07:37.278Z,19.42
2017-10-28T02:08:05.210Z,19.44
2017-10-28T02:08:33.149Z,19.47
2017-10-28T02:09:01.272Z,19.45
2017-10-28T02:09:29.385Z,19.48
2017-10-28T02:09:57.403Z,19.44
2017-10-28T02:10:25.417Z,19.47
2017-10-28T02:10:53.443Z,19.44
2017-10-28T02:11:21.456Z,19.48
2017-10-28T02:11:49.485Z,19.42
2017-10-28T02:12:17.519Z,19.41
2017-10-28T02:12:45.434Z,19.47
2017-10-28T02:13:13.541Z,19.45
2017-10-28T02:13:41.658Z,19.53
2017-10-28T02:14:09.768Z,19.49
2017-10-28T02:14:37.864Z,19.44
2017-10-28T02:15:05.992Z,19.44
2017-10-28T02:15:33.997Z,19.55
2017-10-28T02:16:02.111Z,19.53
2017-10-28T02:16:30.239Z,19.49
2017-10-28T02:16:58.247Z,19.56
2017-10-28T02:17:26.155Z,19.53
2017-10-28T02:17:54.262Z,19.55
2017-10-28T02:18:22.199Z,19.59
2017-10-28T02:18:50.332Z,19.55
2017-10-28T02:19:18.356Z,19.49
2017-10-28T02:19:46.381Z,19.57
2017-10-28T02:20:14.407Z,19.57
2017-10-28T02:20:42.308Z,19.53
2017-10-28T02:21:10.202Z,19.63
2017-10-28T02:21:38.382Z,19.66
2017-10-28T02:22:06.501Z,19.62
2017-10-28T02:22:34.440Z,19.62
2017-10-28T02:23:02.482Z,19.63
2017-10-28T02:23:30.615Z,19.66
2017-10-28T02:23:58.645Z,19.63
2017-10-28T02:24:26.650Z,19.66
2017-10-28T02:24:54.773Z,19.62
2017-10-28T02:25:22.699Z,19.67
2017-10-28T02:25:50.774Z,19.64
2017-10-28T02:26:18.444Z,19.64
2017-10-28T02:26:46.352Z,19.63
2017-10-28T02:27:14.262Z,19.59
2017-10-28T02:27:42.304Z,19.74
2017-10-28T02:28:10.307Z,19.77
2017-10-28T02:28:38.307Z,19.75
2017-10-28T02:29:06.104Z,19.74
2017-10-28T02:29:34.122Z,19.63
2017-10-28T02:30:02.244Z,19.77
2017-10-28T02:30:30.344Z,19.72
2017-10-28T02:30:58.467Z,19.75
2017-10-28T02:31:26.489Z,19.74
2017-10-28T02:31:54.511Z,19.74
2017-10-28T02:32:22.303Z,19.74
2017-10-28T02:32:50.224Z,19.81
2017-10-28T02:33:18.284Z,19.74
2017-10-28T02:33:46.358Z,19.7
2017-10-28T02:34:14.370Z,19.72
2017-10-28T02:34:42.367Z,19.72
2017-10-28T02:35:10.282Z,19.74
2017-10-28T02:35:38.375Z,19.72
2017-10-28T02:36:06.430Z,19.64
2017-10-28T02:36:34.466Z,19.84
2017-10-28T02:37:02.569Z,19.7
2017-10-28T02:37:30.496Z,19.77
2017-10-28T02:37:58.601Z,19.77
2017-10-28T02:38:26.722Z,19.71
2017-10-28T02:38:54.744Z,19.81
2017-10-28T02:39:22.771Z,19.82
2017-10-28T02:39:50.796Z,19.85
2017-10-28T02:40:18.735Z,19.82
2017-10-28T02:40:46.749Z,19.82
2017-10-28T02:41:14.679Z,19.82
2017-10-28T02:41:42.810Z,19.84
2017-10-28T02:42:10.714Z,19.9
2017-10-28T02:42:38.819Z,19.82
2017-10-28T02:43:46.255Z,19.87
2017-10-28T02:44:14.285Z,19.87
2017-10-28T02:44:42.228Z,19.99
2017-10-28T02:45:10.134Z,19.89
2017-10-28T02:45:38.257Z,19.97
2017-10-28T02:46:06.273Z,19.92
2017-10-28T02:46:34.278Z,19.94
2017-10-28T02:47:02.207Z,19.97
2017-10-28T02:47:30.149Z,19.94
2017-10-28T02:47:58.463Z,19.99
2017-10-28T02:48:26.161Z,19.99
2017-10-28T02:48:54.273Z,20
2017-10-28T02:49:22.366Z,19.93
2017-10-28T02:49:50.478Z,19.96
2017-10-28T02:50:18.518Z,19.94
2017-10-28T02:50:46.543Z,19.94
2017-10-28T02:51:14.663Z,19.96
2017-10-28T02:51:42.757Z,19.97
2017-10-28T02:52:10.865Z,20.03
2017-10-28T02:52:38.984Z,20.07
2017-10-28T02:53:07.072Z,20.1
2017-10-28T02:53:35.211Z,20.02
2017-10-28T02:54:03.216Z,20.1
2017-10-28T02:54:31.127Z,20.11
2017-10-28T02:54:59.222Z,20.08
2017-10-28T02:55:27.321Z,20.02
2017-10-28T02:55:55.430Z,20.08
2017-10-28T02:56:23.429Z,20.08
2017-10-28T02:56:51.554Z,20.07
2017-10-28T02:57:19.553Z,20.1
2017-10-28T02:58:25.877Z,20.1
2017-10-28T02:58:53.723Z,20.07
2017-10-28T02:59:21.738Z,20.04
2017-10-28T02:59:49.747Z,20
2017-10-28T03:00:17.757Z,20
2017-10-28T03:00:45.892Z,19.99
2017-10-28T03:01:14.013Z,20
2017-10-28T03:01:42.344Z,19.96
2017-10-28T03:02:10.493Z,19.92
2017-10-28T03:02:38.612Z,19.94
2017-10-28T03:03:06.728Z,19.92
2017-10-28T03:04:07.408Z,19.96
2017-10-28T03:04:35.472Z,19.93
2017-10-28T03:05:03.301Z,20
2017-10-28T03:05:31.426Z,19.96
2017-10-28T03:05:59.539Z,20
2017-10-28T03:06:27.436Z,20.03
2017-10-28T03:06:55.572Z,20.02
2017-10-28T03:07:23.600Z,19.93
2017-10-28T03:07:51.504Z,19.97
2017-10-28T03:08:19.525Z,19.99
2017-10-28T03:08:47.535Z,20
2017-10-28T03:09:15.641Z,20.08
2017-10-28T03:09:43.637Z,20
2017-10-28T03:10:11.755Z,20
2017-10-28T03:10:39.878Z,20.04
2017-10-28T03:11:07.892Z,20
2017-10-28T03:11:36.017Z,20.07
2017-10-28T03:12:04.014Z,20.07
2017-10-28T03:12:31.823Z,20.08
2017-10-28T03:12:59.959Z,20.07
2017-10-28T03:13:28.074Z,20.1
2017-10-28T03:13:55.981Z,20.07
2017-10-28T03:14:23.988Z,20.1
2017-10-28T03:14:51.902Z,20.1
2017-10-28T03:15:19.935Z,20.04
2017-10-28T03:15:47.947Z,20.08
2017-10-28T03:16:16.078Z,20.07
2017-10-28T03:16:44.004Z,20.15
2017-10-28T03:17:12.043Z,20.21
2017-10-28T03:17:39.976Z,20.26
2017-10-28T03:18:08.005Z,20.22
2017-10-28T03:18:36.122Z,20.18
2017-10-28T03:19:04.218Z,20.21
2017-10-28T03:19:32.349Z,20.3
2017-10-28T03:20:00.345Z,20.32
2017-10-28T03:20:28.460Z,20.29
2017-10-28T03:20:56.399Z,20.32
2017-10-28T03:21:24.522Z,20.39
2017-10-28T03:21:52.422Z,20.46
2017-10-28T03:22:20.324Z,20.42
2017-10-28T03:22:48.256Z,20.4
2017-10-28T03:23:16.182Z,20.46
2017-10-28T03:23:44.181Z,20.53
2017-10-28T03:24:12.271Z,20.49
2017-10-28T03:24:40.366Z,20.46
2017-10-28T03:25:08.473Z,20.53
2017-10-28T03:25:36.510Z,20.42
2017-10-28T03:26:04.518Z,20.49
2017-10-28T03:26:32.426Z,20.42
2017-10-28T03:27:00.540Z,20.44
2017-10-28T03:27:28.563Z,20.58
2017-10-28T03:27:56.557Z,20.58
2017-10-28T03:28:24.674Z,20.52
2017-10-28T03:28:52.680Z,20.63
2017-10-28T03:29:20.706Z,20.64
2017-10-28T03:29:48.728Z,20.58
2017-10-28T03:30:16.645Z,20.56
2017-10-28T03:30:44.781Z,20.63
2017-10-28T03:31:12.877Z,20.63
2017-10-28T03:31:40.965Z,20.6
2017-10-28T03:32:08.998Z,20.56
2017-10-28T03:32:37.105Z,20.59
2017-10-28T03:33:05.201Z,20.66
2017-10-28T03:33:33.304Z,20.6
2017-10-28T03:34:01.410Z,20.63
2017-10-28T03:34:29.314Z,20.67
2017-10-28T03:34:57.147Z,20.66
2017-10-28T03:35:25.143Z,20.71
2017-10-28T03:35:53.252Z,20.6
2017-10-28T03:36:21.155Z,20.67
2017-10-28T03:36:49.165Z,20.71
2017-10-28T03:37:17.080Z,20.68
2017-10-28T03:37:45.183Z,20.59
2017-10-28T03:38:13.010Z,20.67
2017-10-28T03:38:40.997Z,20.63
2017-10-28T03:39:08.940Z,20.74
2017-10-28T03:39:37.077Z,20.75
2017-10-28T03:40:04.866Z,20.75
2017-10-28T03:40:32.890Z,20.63
2017-10-28T03:41:00.909Z,20.75
2017-10-28T03:41:29.033Z,20.75
2017-10-28T03:41:57.132Z,20.68
2017-10-28T03:42:25.172Z,20.77
2017-10-28T03:42:53.279Z,20.71
2017-10-28T03:43:21.194Z,20.75
2017-10-28T03:43:49.101Z,20.73
2017-10-28T03:44:17.218Z,20.7
2017-10-28T03:44:45.351Z,20.68
2017-10-28T03:45:13.360Z,20.64
2017-10-28T03:45:41.491Z,20.67
2017-10-28T03:46:09.625Z,20.68
2017-10-28T03:46:38.515Z,20.55
2017-10-28T03:47:06.552Z,20.64
2017-10-28T03:47:34.588Z,20.64
2017-10-28T03:48:02.706Z,20.68
2017-10-28T03:48:30.706Z,20.6
2017-10-28T03:48:58.802Z,20.59
2017-10-28T03:49:26.612Z,20.66
2017-10-28T03:49:54.626Z,20.71
2017-10-28T03:50:22.549Z,20.68
2017-10-28T03:50:50.660Z,20.67
2017-10-28T03:51:18.681Z,20.7
2017-10-28T03:51:46.799Z,20.7
2017-10-28T03:52:14.837Z,20.63
2017-10-28T03:52:42.875Z,20.74
2017-10-28T03:53:10.993Z,20.67
2017-10-28T03:53:39.024Z,20.77
2017-10-28T03:54:06.843Z,20.74
2017-10-28T03:54:34.956Z,20.71
2017-10-28T03:55:02.883Z,20.82
2017-10-28T03:55:30.799Z,20.77
2017-10-28T03:55:58.931Z,20.73
2017-10-28T03:56:27.050Z,20.74
2017-10-28T03:56:55.175Z,20.75
2017-10-28T03:57:23.070Z,20.83
2017-10-28T03:57:51.105Z,20.7
2017-10-28T03:58:19.147Z,20.85
2017-10-28T03:58:47.067Z,20.9
2017-10-28T03:59:15.076Z,20.85
2017-10-28T03:59:43.150Z,20.89
2017-10-28T04:00:11.065Z,20.82
2017-10-28T04:00:39.085Z,20.9
2017-10-28T04:01:07.213Z,20.86
2017-10-28T04:01:35.351Z,20.9
2017-10-28T04:02:03.260Z,20.88
2017-10-28T04:02:31.186Z,20.83
2017-10-28T04:02:59.294Z,20.95
2017-10-28T04:03:27.398Z,20.89
2017-10-28T04:03:55.406Z,20.96
2017-10-28T04:04:23.422Z,20.85
2017-10-28T04:04:51.441Z,20.88
2017-10-28T04:05:19.290Z,20.93
2017-10-28T04:05:47.429Z,20.95
2017-10-28T04:06:15.546Z,20.92
2017-10-28T04:06:43.559Z,21.01
2017-10-28T04:07:11.573Z,20.92
2017-10-28T04:07:39.745Z,20.9
2017-10-28T04:08:07.763Z,20.9
2017-10-28T04:08:35.780Z,20.9
2017-10-28T04:09:03.876Z,20.95
2017-10-28T04:09:31.691Z,20.89
2017-10-28T04:09:59.699Z,20.89
2017-10-28T04:10:27.682Z,21.01
2017-10-28T04:10:55.555Z,21
2017-10-28T04:11:23.676Z,21.01
2017-10-28T04:11:51.718Z,20.95
2017-10-28T04:12:19.728Z,20.98
2017-10-28T04:12:47.759Z,21.04
2017-10-28T04:13:15.766Z,21.04
2017-10-28T04:13:43.899Z,21.03
2017-10-28T04:14:11.775Z,21.03
2017-10-28T04:14:39.595Z,20.98
2017-10-28T04:15:07.418Z,21.04
2017-10-28T04:15:35.439Z,21.1
2017-10-28T04:16:03.553Z,21.14
2017-10-28T04:16:31.646Z,21.11
2017-10-28T04:16:59.671Z,21.15
2017-10-28T04:17:27.678Z,21.15
2017-10-28T04:17:55.797Z,21.11
2017-10-28T04:18:23.707Z,21.17
2017-10-28T04:18:51.568Z,21.07
2017-10-28T04:19:19.479Z,21.11
2017-10-28T04:19:47.504Z,21.17
2017-10-28T04:20:15.511Z,21.11
2017-10-28T04:20:43.558Z,21.14
2017-10-28T04:21:11.480Z,21.1
2017-10-28T04:21:39.501Z,21.17
2017-10-28T04:22:07.634Z,21.13
2017-10-28T04:22:35.791Z,21.15
2017-10-28T04:23:03.932Z,21.14
2017-10-28T04:23:32.776Z,21.14
2017-10-28T04:24:00.809Z,21.11
2017-10-28T04:24:28.910Z,21.11
2017-10-28T04:24:56.828Z,21.11
2017-10-28T04:25:24.849Z,21.15
2017-10-28T04:25:52.779Z,21.11
2017-10-28T04:26:20.893Z,21.19
2017-10-28T04:26:49.022Z,21.28
2017-10-28T04:27:17.154Z,21.22
2017-10-28T04:27:45.200Z,21.2
2017-10-28T04:28:13.301Z,21.25
2017-10-28T04:28:41.301Z,21.26
2017-10-28T04:29:09.322Z,21.33
2017-10-28T04:29:37.339Z,21.33
2017-10-28T04:30:05.375Z,21.3
2017-10-28T04:30:33.394Z,21.29
2017-10-28T04:31:01.519Z,21.35
2017-10-28T04:31:29.552Z,21.35
2017-10-28T04:31:57.579Z,21.37
2017-10-28T04:32:25.363Z,21.35
2017-10-28T04:32:53.463Z,21.35
2017-10-28T04:33:21.569Z,21.4
2017-10-28T04:33:49.703Z,21.37
2017-10-28T04:34:17.620Z,21.41
2017-10-28T04:34:45.571Z,21.4
2017-10-28T04:35:13.558Z,21.4
2017-10-28T04:35:41.704Z,21.41
2017-10-28T04:36:09.642Z,21.33
2017-10-28T04:36:37.638Z,21.37
2017-10-28T04:37:05.549Z,21.38
2017-10-28T04:37:33.553Z,21.32
2017-10-28T04:38:01.683Z,21.28
2017-10-28T04:38:29.701Z,21.3
2017-10-28T04:38:57.694Z,21.32
2017-10-28T04:39:25.803Z,21.35
2017-10-28T04:39:53.841Z,21.33
2017-10-28T04:40:21.973Z,21.33
2017-10-28T04:40:50.097Z,21.29
2017-10-28T04:41:18.214Z,21.37
2017-10-28T04:41:46.238Z,21.29
2017-10-28T04:42:14.161Z,21.33
2017-10-28T04:42:42.179Z,21.33
2017-10-28T04:43:10.276Z,21.35
2017-10-28T04:43:38.312Z,21.32
2017-10-28T04:44:06.325Z,21.37
2017-10-28T04:44:34.451Z,21.38
2017-10-28T04:45:02.350Z,21.4
2017-10-28T04:45:30.343Z,21.44
2017-10-28T04:45:58.486Z,21.43
2017-10-28T04:46:26.406Z,21.4
2017-10-28T04:46:54.518Z,21.41
2017-10-28T04:47:22.544Z,21.43
2017-10-28T04:47:50.558Z,21.43
2017-10-28T04:48:18.550Z,21.43
2017-10-28T04:48:46.672Z,21.43
2017-10-28T04:49:14.686Z,21.44
2017-10-28T04:49:42.801Z,21.43
2017-10-28T04:50:10.711Z,21.35
2017-10-28T04:50:38.729Z,21.4
2017-10-28T04:51:06.776Z,21.43
2017-10-28T04:51:34.768Z,21.37
2017-10-28T04:52:02.870Z,21.35
2017-10-28T04:52:31.014Z,21.35
2017-10-28T04:52:59.027Z,21.35
2017-10-28T04:53:27.146Z,21.4
2017-10-28T04:53:55.160Z,21.32
2017-10-28T04:54:23.136Z,21.38
2017-10-28T04:54:51.252Z,21.35
2017-10-28T04:55:19.388Z,21.38
2017-10-28T04:55:47.517Z,21.37
2017-10-28T04:56:15.440Z,21.35
2017-10-28T04:56:43.488Z,21.38
2017-10-28T04:57:11.417Z,21.37
2017-10-28T04:57:39.435Z,21.33
2017-10-28T04:58:07.518Z,21.29
2017-10-28T04:58:35.552Z,21.3
2017-10-28T04:59:03.600Z,21.29
2017-10-28T04:59:31.629Z,21.28
2017-10-28T04:59:59.652Z,21.3
2017-10-28T05:00:27.648Z,21.35
2017-10-28T05:00:55.577Z,21.26
2017-10-28T05:01:23.488Z,21.25
2017-10-28T05:01:51.512Z,21.2
2017-10-28T05:02:19.614Z,21.25
2017-10-28T05:02:47.732Z,21.25
2017-10-28T05:03:15.623Z,21.26
2017-10-28T05:03:43.773Z,21.26
2017-10-28T05:04:11.886Z,21.17
2017-10-28T05:04:39.805Z,21.22
2017-10-28T05:05:07.908Z,21.19
2017-10-28T05:05:35.798Z,21.15
2017-10-28T05:06:03.699Z,21.08
2017-10-28T05:06:31.727Z,21.19
2017-10-28T05:06:59.847Z,21.15
2017-10-28T05:07:27.966Z,21.15
2017-10-28T05:07:55.975Z,21.11
2017-10-28T05:08:24.073Z,21.13
2017-10-28T05:08:52.088Z,21.1
2017-10-28T05:09:20.094Z,21.11
2017-10-28T05:09:48.110Z,21.01
2017-10-28T05:10:16.128Z,21.1
2017-10-28T05:10:44.262Z,20.98
2017-10-28T05:11:12.287Z,20.96
2017-10-28T05:11:40.381Z,21.08
2017-10-28T05:12:08.407Z,20.98
2017-10-28T05:12:36.410Z,21.08
2017-10-28T05:13:04.517Z,21.07
2017-10-28T05:13:32.554Z,21
2017-10-28T05:14:00.695Z,21
2017-10-28T05:14:28.713Z,21
2017-10-28T05:14:56.545Z,21.03
2017-10-28T05:15:24.479Z,21.07
2017-10-28T05:15:52.474Z,21.05
2017-10-28T05:16:20.466Z,21.01
2017-10-28T05:16:48.600Z,21.03
2017-10-28T05:17:16.645Z,21.05
2017-10-28T05:17:44.766Z,21.01
2017-10-28T05:18:12.900Z,21.03
2017-10-28T05:18:40.921Z,20.98
2017-10-28T05:19:08.936Z,21
2017-10-28T05:19:37.045Z,20.98
2017-10-28T05:20:04.973Z,21.01
2017-10-28T05:20:32.995Z,21.03
2017-10-28T05:21:00.998Z,20.98
2017-10-28T05:21:29.140Z,21.13
2017-10-28T05:21:57.260Z,21.01
2017-10-28T05:22:25.184Z,21.13
2017-10-28T05:22:53.220Z,21.13
2017-10-28T05:23:21.042Z,21.17
2017-10-28T05:23:48.958Z,21.13
2017-10-28T05:24:16.868Z,21.08
2017-10-28T05:24:44.882Z,21.14
2017-10-28T05:25:12.810Z,21.14
2017-10-28T05:25:40.931Z,21.11
2017-10-28T05:26:08.747Z,21.11
2017-10-28T05:26:36.683Z,21.15
2017-10-28T05:27:04.627Z,21.2
2017-10-28T05:27:32.750Z,21.17
2017-10-28T05:28:00.857Z,21.2
2017-10-28T05:28:28.783Z,21.15
2017-10-28T05:28:56.874Z,21.11
2017-10-28T05:29:24.908Z,21.22
2017-10-28T05:29:52.923Z,21.17
2017-10-28T05:30:20.739Z,21.11
2017-10-28T05:30:48.775Z,21.17
2017-10-28T05:31:16.727Z,21.1
2017-10-28T05:31:44.624Z,21.13
2017-10-28T05:32:12.642Z,21.01
2017-10-28T05:32:40.461Z,21.05
2017-10-28T05:33:08.462Z,21.07
2017-10-28T05:33:36.477Z,21.05
2017-10-28T05:34:04.598Z,21.05
2017-10-28T05:34:32.740Z,21.07
2017-10-28T05:35:00.767Z,20.98
2017-10-28T05:35:28.873Z,21.03
2017-10-28T05:35:56.865Z,21.01
2017-10-28T05:36:24.968Z,21.01
2017-10-28T05:36:53.088Z,21.03
2017-10-28T05:37:21.006Z,21.03
2017-10-28T05:37:49.130Z,21.07
2017-10-28T05:38:16.940Z,21.04
2017-10-28T05:38:45.034Z,21.04
2017-10-28T05:39:13.130Z,21.08
2017-10-28T05:39:41.241Z,21
2017-10-28T05:40:09.154Z,21.05
2017-10-28T05:40:37.087Z,21.1
2017-10-28T05:41:05.113Z,21.01
2017-10-28T05:41:33.129Z,21
2017-10-28T05:42:01.151Z,21
2017-10-28T05:42:29.283Z,21.01
2017-10-28T05:42:57.170Z,20.9
2017-10-28T05:43:25.077Z,21.07
2017-10-28T05:43:53.135Z,21.07
2017-10-28T05:44:21.160Z,20.95
2017-10-28T05:44:49.280Z,20.98
2017-10-28T05:45:17.297Z,21.08
2017-10-28T05:45:45.280Z,21
2017-10-28T05:46:13.196Z,21.01
2017-10-28T05:46:41.193Z,21.03
2017-10-28T05:47:09.294Z,21.07
2017-10-28T05:47:37.329Z,21.04
2017-10-28T05:48:05.361Z,20.95
2017-10-28T05:48:33.452Z,21.03
2017-10-28T05:49:01.555Z,20.98
2017-10-28T05:49:29.685Z,21.01
2017-10-28T05:49:57.792Z,21.05
2017-10-28T05:50:25.803Z,21.05
2017-10-28T05:50:53.805Z,20.83
2017-10-28T05:51:21.815Z,20.93
2017-10-28T05:51:50.611Z,21.05
2017-10-28T05:52:18.720Z,21.05
2017-10-28T05:52:46.834Z,20.92
2017-10-28T05:53:14.954Z,21.01
2017-10-28T05:53:42.753Z,20.9
2017-10-28T05:54:10.861Z,20.93
2017-10-28T05:54:38.992Z,20.9
2017-10-28T05:55:07.100Z,21.03
2017-10-28T05:55:35.142Z,21.03
2017-10-28T05:56:03.151Z,21
2017-10-28T05:56:31.167Z,20.88
2017-10-28T05:56:59.278Z,20.92
2017-10-28T05:57:27.186Z,21.03
2017-10-28T05:57:55.313Z,20.98
2017-10-28T05:58:23.342Z,20.92
2017-10-28T05:58:51.296Z,20.93
2017-10-28T05:59:19.293Z,20.88
2017-10-28T05:59:47.313Z,20.88
2017-10-28T06:00:15.350Z,20.92
2017-10-28T06:00:43.398Z,20.93
2017-10-28T06:01:11.446Z,20.86
2017-10-28T06:01:39.564Z,20.92
2017-10-28T06:02:07.550Z,20.92
2017-10-28T06:02:35.649Z,20.85
2017-10-28T06:03:03.486Z,20.89
2017-10-28T06:03:31.504Z,20.95
2017-10-28T06:03:59.502Z,20.9
2017-10-28T06:04:27.417Z,20.92